Time;durP1;ratioP1;P1;durP2;ratioP2;P2;SDS_P1;SDS_P2;PMS_P1;PMS_P2;Temp;Humidity;BMP_temperature;BMP_pressure;BME280_temperature;BME280_humidity;BME280_pressure;Samples;Min_cycle;Max_cycle;Signal;HPM_P1;HPM_P2
2021/08/20 00:01:58;;;;;;;1.60;1.50;;;19.80;99.90;;;;;;5015768;28;20263;-54
2021/08/20 00:04:23;;;;;;;1.50;1.40;;;19.90;99.90;;;;;;5012879;28;20172;-58
2021/08/20 00:06:49;;;;;;;2.63;1.60;;;19.90;99.90;;;;;;5013194;28;20172;-58
2021/08/20 00:09:15;;;;;;;1.83;1.70;;;20.00;99.90;;;;;;5013723;28;20680;-58
2021/08/20 00:11:41;;;;;;;1.77;1.63;;;19.90;99.90;;;;;;5013174;28;20172;-58
2021/08/20 00:14:08;;;;;;;1.57;1.47;;;19.90;99.90;;;;;;5013529;28;20414;-54
2021/08/20 00:16:34;;;;;;;6.20;1.80;;;19.80;99.90;;;;;;5013104;28;20172;-54
2021/08/20 00:19:00;;;;;;;4.07;1.80;;;19.70;99.90;;;;;;5012494;28;20443;-53
2021/08/20 00:21:26;;;;;;;1.67;1.57;;;19.50;99.90;;;;;;5013266;28;20414;-56
2021/08/20 00:23:51;;;;;;;2.10;1.73;;;19.40;99.90;;;;;;5015108;28;20413;-53
2021/08/20 00:26:17;;;;;;;2.70;1.40;;;19.50;99.90;;;;;;5017308;28;20218;-53
2021/08/20 00:28:43;;;;;;;2.30;1.50;;;19.50;99.90;;;;;;5016896;28;20234;-53
2021/08/20 00:31:08;;;;;;;1.50;1.40;;;19.40;99.90;;;;;;5017294;28;20251;-56
2021/08/20 00:33:35;;;;;;;1.57;1.47;;;19.40;99.90;;;;;;5016833;28;20206;-58
2021/08/20 00:36:02;;;;;;;1.83;1.73;;;19.50;99.90;;;;;;5016222;28;20184;-58
2021/08/20 00:38:29;;;;;;;1.40;1.30;;;19.40;99.90;;;;;;5016661;28;20426;-57
2021/08/20 00:40:54;;;;;;;2.80;1.83;;;19.50;99.90;;;;;;5017307;28;20414;-57
2021/08/20 00:43:25;;;;;;;3.53;2.00;;;19.60;99.90;;;;;;5016835;28;20429;-58
2021/08/20 00:45:55;;;;;;;1.77;1.67;;;19.40;99.90;;;;;;5016905;28;20655;-57
2021/08/20 00:48:21;;;;;;;1.73;1.50;;;19.60;99.90;;;;;;5016261;28;20447;-58
2021/08/20 00:50:47;;;;;;;2.00;1.53;;;19.70;99.90;;;;;;5016192;28;20415;-57
2021/08/20 00:53:13;;;;;;;2.13;1.67;;;19.70;99.90;;;;;;5016488;28;20481;-53
2021/08/20 00:55:39;;;;;;;3.70;1.37;;;19.80;99.90;;;;;;5017106;28;20859;-53
2021/08/20 00:58:05;;;;;;;1.80;1.70;;;19.80;99.90;;;;;;4999024;28;20448;-51
2021/08/20 01:00:30;;;;;;;1.90;1.53;;;19.90;99.90;;;;;;5016461;28;20171;-52
2021/08/20 01:02:56;;;;;;;2.40;1.90;;;19.90;99.90;;;;;;5016314;28;20410;-50
2021/08/20 01:05:22;;;;;;;2.50;1.50;;;19.90;99.90;;;;;;5016106;28;20225;-50
2021/08/20 01:07:48;;;;;;;1.80;1.50;;;19.80;99.90;;;;;;5016318;28;20534;-53
2021/08/20 01:10:15;;;;;;;3.50;1.63;;;19.70;99.90;;;;;;5016316;28;20179;-53
2021/08/20 01:12:41;;;;;;;1.80;1.40;;;19.70;99.90;;;;;;5016588;28;20455;-53
2021/08/20 01:15:08;;;;;;;1.67;1.57;;;19.70;99.90;;;;;;5016254;28;20926;-50
2021/08/20 01:17:33;;;;;;;3.23;1.43;;;19.70;99.90;;;;;;5015933;28;20423;-53
2021/08/20 01:20:00;;;;;;;2.80;1.60;;;19.70;99.90;;;;;;5016009;28;20411;-53
2021/08/20 01:22:25;;;;;;;2.60;1.50;;;19.70;99.90;;;;;;5015764;28;20183;-53
2021/08/20 01:25:00;;;;;;;1.87;1.77;;;19.70;99.90;;;;;;5016017;28;20407;-52
2021/08/20 01:27:26;;;;;;;1.77;1.67;;;19.60;99.90;;;;;;5016134;28;20187;-52
2021/08/20 01:29:51;;;;;;;1.70;1.60;;;19.30;99.90;;;;;;5015798;28;20450;-53
2021/08/20 01:32:17;;;;;;;2.17;1.97;;;19.20;99.90;;;;;;5015882;28;20454;-54
2021/08/20 01:34:43;;;;;;;2.53;1.80;;;19.40;99.90;;;;;;5015555;28;20168;-52
2021/08/20 01:37:08;;;;;;;2.20;2.00;;;19.40;99.90;;;;;;5015395;28;20258;-52
2021/08/20 01:39:34;;;;;;;3.83;2.00;;;19.30;99.90;;;;;;5015649;28;20609;-55
2021/08/20 01:41:59;;;;;;;4.70;1.70;;;19.40;99.90;;;;;;5015904;28;20187;-54
2021/08/20 01:44:25;;;;;;;3.93;2.10;;;19.50;99.90;;;;;;5015769;28;20536;-51
2021/08/20 01:46:50;;;;;;;2.33;2.07;;;19.40;99.90;;;;;;5015322;28;20204;-56
2021/08/20 01:49:18;;;;;;;3.33;2.00;;;19.20;99.90;;;;;;5015835;28;20696;-54
2021/08/20 01:51:43;;;;;;;2.30;1.80;;;19.20;99.90;;;;;;5015135;28;20263;-51
2021/08/20 01:54:09;;;;;;;1.60;1.50;;;19.40;99.90;;;;;;5015558;28;20442;-52
2021/08/20 01:56:36;;;;;;;2.97;2.30;;;19.40;99.90;;;;;;5015751;28;20194;-48
2021/08/20 01:59:02;;;;;;;2.03;1.73;;;19.60;99.90;;;;;;5015418;28;20192;-50
2021/08/20 02:01:31;;;;;;;3.40;2.17;;;19.60;99.90;;;;;;5015099;28;20407;-50
2021/08/20 02:03:57;;;;;;;2.63;2.13;;;19.60;99.90;;;;;;5014923;28;20411;-53
2021/08/20 02:06:23;;;;;;;2.40;1.83;;;19.60;99.90;;;;;;5015256;28;20581;-55
2021/08/20 02:08:49;;;;;;;3.43;2.40;;;19.50;99.90;;;;;;5014933;28;20467;-54
2021/08/20 02:11:14;;;;;;;2.70;1.90;;;19.50;99.90;;;;;;5017428;28;20438;-53
2021/08/20 02:13:41;;;;;;;3.40;1.47;;;19.60;99.90;;;;;;5014885;28;20202;-54
2021/08/20 02:16:06;;;;;;;1.90;1.80;;;19.70;99.90;;;;;;5015090;28;20236;-50
2021/08/20 02:18:33;;;;;;;2.60;1.73;;;19.70;99.90;;;;;;5014755;28;20558;-54
2021/08/20 02:20:58;;;;;;;2.83;2.10;;;19.60;99.90;;;;;;5014657;28;20174;-54
2021/08/20 02:23:24;;;;;;;2.63;2.40;;;19.60;99.90;;;;;;5014763;28;20411;-52
2021/08/20 02:25:50;;;;;;;3.47;1.87;;;19.50;99.90;;;;;;5015317;28;20279;-53
2021/08/20 02:28:15;;;;;;;3.30;1.87;;;19.50;99.90;;;;;;5015037;28;20192;-50
2021/08/20 02:30:41;;;;;;;2.80;1.87;;;19.50;99.90;;;;;;5015094;28;20207;-52
2021/08/20 02:33:07;;;;;;;3.00;2.07;;;19.50;99.90;;;;;;5014021;28;20283;-51
2021/08/20 02:35:32;;;;;;;2.30;1.80;;;19.50;99.90;;;;;;5014262;28;20187;-53
2021/08/20 02:37:58;;;;;;;2.00;1.90;;;19.50;99.90;;;;;;5014553;28;20280;-51
2021/08/20 02:40:24;;;;;;;1.73;1.63;;;19.60;99.90;;;;;;5014969;28;20548;-55
2021/08/20 02:42:51;;;;;;;4.40;1.87;;;19.60;99.90;;;;;;5014911;28;20183;-52
2021/08/20 02:45:16;;;;;;;2.60;1.80;;;19.60;99.90;;;;;;5014649;28;20408;-54
2021/08/20 02:47:42;;;;;;;3.60;2.20;;;19.60;99.90;;;;;;5013926;28;20597;-53
2021/08/20 02:50:08;;;;;;;2.60;1.83;;;19.70;99.90;;;;;;5014420;28;20176;-51
2021/08/20 02:52:34;;;;;;;5.27;1.83;;;19.60;99.90;;;;;;5022627;22;20489;-62
2021/08/20 02:55:00;;;;;;;2.43;2.20;;;19.70;99.90;;;;;;5009624;28;20431;-61
2021/08/20 02:57:29;;;;;;;1.63;1.43;;;19.70;99.90;;;;;;5014938;28;20203;-61
2021/08/20 02:59:55;;;;;;;3.30;1.87;;;19.70;99.90;;;;;;5014977;28;20811;-61
2021/08/20 03:02:21;;;;;;;1.70;1.60;;;19.70;99.90;;;;;;5013970;28;20473;-61
2021/08/20 03:04:46;;;;;;;2.63;1.70;;;19.80;99.90;;;;;;5013963;28;20403;-61
2021/08/20 03:07:12;;;;;;;2.10;1.90;;;19.70;99.90;;;;;;5014205;28;20172;-61
2021/08/20 03:09:37;;;;;;;2.20;2.00;;;19.70;99.90;;;;;;5013937;28;20164;-61
2021/08/20 03:12:03;;;;;;;2.10;1.60;;;19.50;99.90;;;;;;5014303;28;20212;-61
2021/08/20 03:14:29;;;;;;;1.80;1.70;;;19.50;99.90;;;;;;5014170;28;20308;-62
2021/08/20 03:16:55;;;;;;;2.90;1.97;;;19.60;99.90;;;;;;5014020;28;20476;-61
2021/08/20 03:19:21;;;;;;;2.03;1.80;;;19.70;99.90;;;;;;5013718;28;20655;-61
2021/08/20 03:21:48;;;;;;;2.37;2.07;;;19.70;99.90;;;;;;5008660;28;20785;-61
2021/08/20 03:24:14;;;;;;;1.83;1.70;;;19.70;99.90;;;;;;4994369;28;20773;-61
2021/08/20 03:26:40;;;;;;;1.90;1.53;;;19.70;99.90;;;;;;4994266;28;20793;-61
2021/08/20 03:29:05;;;;;;;2.10;1.53;;;19.70;99.90;;;;;;4994427;28;20407;-61
2021/08/20 03:31:31;;;;;;;2.50;1.73;;;19.70;99.90;;;;;;4994041;28;20192;-61
2021/08/20 03:33:57;;;;;;;2.20;1.70;;;19.80;99.90;;;;;;4993926;28;20196;-61
2021/08/20 03:36:24;;;;;;;2.27;1.80;;;19.80;99.90;;;;;;4993636;28;20171;-62
2021/08/20 03:38:51;;;;;;;1.83;1.70;;;19.80;99.90;;;;;;4994078;28;20177;-61
2021/08/20 03:41:18;;;;;;;1.80;1.70;;;19.80;99.90;;;;;;4993800;28;20808;-61
2021/08/20 03:43:44;;;;;;;3.00;1.63;;;19.80;99.90;;;;;;4993937;28;20411;-61
2021/08/20 03:46:10;;;;;;;2.37;1.87;;;19.80;99.90;;;;;;4993757;28;20416;-61
2021/08/20 03:48:36;;;;;;;2.23;1.90;;;19.70;99.90;;;;;;4993833;28;20407;-62
2021/08/20 03:51:03;;;;;;;1.93;1.80;;;19.70;99.90;;;;;;4993784;28;20176;-62
2021/08/20 03:53:29;;;;;;;3.47;2.20;;;19.70;99.90;;;;;;4993343;28;20466;-61
2021/08/20 03:55:54;;;;;;;1.97;1.77;;;19.70;99.90;;;;;;4993688;28;20470;-61
2021/08/20 03:58:20;;;;;;;2.40;1.90;;;19.70;99.90;;;;;;4996343;28;20403;-61
2021/08/20 04:00:51;;;;;;;2.53;2.03;;;19.60;99.90;;;;;;4998011;28;20172;-61
2021/08/20 04:03:24;;;;;;;2.47;2.00;;;19.60;99.90;;;;;;4997544;28;20227;-61
2021/08/20 04:05:51;;;;;;;4.40;2.23;;;19.60;99.90;;;;;;4997434;28;20403;-62
2021/08/20 04:08:17;;;;;;;2.80;2.60;;;19.50;99.90;;;;;;4997529;28;20403;-61
2021/08/20 04:10:43;;;;;;;2.30;2.10;;;19.50;99.90;;;;;;4997849;28;20411;-62
2021/08/20 04:13:10;;;;;;;2.50;2.30;;;19.60;99.90;;;;;;4997402;28;20459;-61
2021/08/20 04:15:37;;;;;;;2.63;1.60;;;19.60;99.90;;;;;;4997781;28;20416;-61
2021/08/20 04:18:03;;;;;;;2.83;2.07;;;19.50;99.90;;;;;;4997420;28;20501;-61
2021/08/20 04:20:29;;;;;;;2.27;1.90;;;19.40;99.90;;;;;;4997005;28;20789;-61
2021/08/20 04:22:55;;;;;;;2.37;2.17;;;19.50;99.90;;;;;;4996921;28;20826;-61
2021/08/20 04:25:22;;;;;;;2.73;2.47;;;19.60;99.90;;;;;;4997569;28;20470;-61
2021/08/20 04:27:48;;;;;;;2.33;2.13;;;19.50;99.90;;;;;;4997623;28;20531;-61
2021/08/20 04:30:14;;;;;;;2.23;2.00;;;19.50;99.90;;;;;;4997339;28;20452;-61
2021/08/20 04:32:39;;;;;;;3.53;2.37;;;19.50;99.90;;;;;;4997413;28;20550;-61
2021/08/20 04:35:05;;;;;;;4.30;2.13;;;19.60;99.90;;;;;;4997214;28;20180;-61
2021/08/20 04:37:31;;;;;;;2.20;2.00;;;19.70;99.90;;;;;;4997262;28;20177;-61
2021/08/20 04:39:57;;;;;;;2.20;2.00;;;19.70;99.90;;;;;;4997131;28;20489;-61
2021/08/20 04:42:23;;;;;;;2.57;2.33;;;19.80;99.90;;;;;;4998012;28;20668;-63
2021/08/20 04:44:48;;;;;;;2.17;1.97;;;19.80;99.90;;;;;;5004085;28;20235;-62
2021/08/20 04:47:14;;;;;;;2.00;1.87;;;19.80;99.90;;;;;;5007584;28;20183;-60
2021/08/20 04:49:39;;;;;;;3.07;2.77;;;19.80;99.90;;;;;;5016592;28;20176;-62
2021/08/20 04:52:05;;;;;;;2.30;2.10;;;19.80;99.90;;;;;;5008600;28;20213;-61
2021/08/20 04:54:31;;;;;;;2.93;2.53;;;19.80;99.90;;;;;;4996712;28;20204;-62
2021/08/20 04:56:56;;;;;;;3.00;2.50;;;19.70;99.90;;;;;;4997489;28;20169;-61
2021/08/20 04:59:22;;;;;;;4.40;2.70;;;19.60;99.90;;;;;;4997091;28;20537;-61
2021/08/20 05:01:47;;;;;;;2.50;2.30;;;19.70;99.90;;;;;;4996857;28;20275;-61
2021/08/20 05:04:14;;;;;;;2.30;2.10;;;19.80;99.90;;;;;;4996782;28;20312;-61
2021/08/20 05:06:39;;;;;;;2.47;2.27;;;19.80;99.90;;;;;;4996560;28;20177;-61
2021/08/20 05:09:07;;;;;;;2.57;2.37;;;19.90;99.90;;;;;;4996148;28;20900;-62
2021/08/20 05:11:35;;;;;;;2.93;2.70;;;19.90;99.90;;;;;;4996659;28;20197;-62
2021/08/20 05:14:00;;;;;;;3.47;2.53;;;20.00;99.90;;;;;;4996630;28;20467;-61
2021/08/20 05:16:26;;;;;;;3.33;2.97;;;20.00;99.90;;;;;;4996423;28;20404;-61
2021/08/20 05:18:53;;;;;;;2.63;2.30;;;20.00;99.90;;;;;;4996344;28;20195;-62
2021/08/20 05:21:18;;;;;;;3.13;2.83;;;20.10;99.90;;;;;;4996174;28;20173;-62
2021/08/20 05:23:44;;;;;;;4.23;3.00;;;20.10;99.90;;;;;;4995911;28;20970;-62
2021/08/20 05:26:09;;;;;;;3.30;2.63;;;20.10;99.90;;;;;;4996308;28;20177;-61
2021/08/20 05:28:35;;;;;;;3.67;3.30;;;20.10;99.90;;;;;;4996015;28;20185;-61
2021/08/20 05:31:01;;;;;;;3.00;2.80;;;20.10;99.90;;;;;;4996300;28;20538;-62
2021/08/20 05:33:26;;;;;;;2.93;2.63;;;20.20;99.90;;;;;;4995904;28;20259;-61
2021/08/20 05:35:52;;;;;;;3.30;2.97;;;20.30;99.90;;;;;;4995962;28;20168;-61
2021/08/20 05:38:18;;;;;;;2.90;2.20;;;20.40;99.90;;;;;;4995649;28;20168;-62
2021/08/20 05:40:43;;;;;;;3.43;2.70;;;20.40;99.90;;;;;;4996193;28;20169;-61
2021/08/20 05:43:09;;;;;;;2.50;2.30;;;20.50;99.90;;;;;;4995872;28;20259;-62
2021/08/20 05:45:38;;;;;;;2.53;2.23;;;20.60;99.90;;;;;;4996177;28;20180;-64
2021/08/20 05:48:05;;;;;;;2.20;2.00;;;20.50;99.90;;;;;;4996052;28;20491;-62
2021/08/20 05:50:31;;;;;;;2.40;2.20;;;20.60;99.90;;;;;;4995888;28;20846;-62
2021/08/20 05:52:56;;;;;;;3.00;2.33;;;20.70;99.90;;;;;;4995189;28;20479;-62
2021/08/20 05:55:22;;;;;;;2.70;2.50;;;20.80;99.90;;;;;;4995915;28;20512;-62
2021/08/20 05:57:47;;;;;;;3.37;2.40;;;20.80;99.90;;;;;;4995755;28;20177;-62
2021/08/20 06:00:13;;;;;;;4.17;2.83;;;20.90;99.90;;;;;;4995953;28;20502;-63
2021/08/20 06:02:41;;;;;;;2.07;1.87;;;20.90;99.90;;;;;;4995927;28;20568;-63
2021/08/20 06:05:07;;;;;;;2.77;2.47;;;20.90;99.90;;;;;;4994931;28;20775;-62
2021/08/20 06:07:33;;;;;;;2.63;2.43;;;21.00;99.90;;;;;;4995061;28;20447;-61
2021/08/20 06:09:58;;;;;;;2.73;2.53;;;21.00;99.90;;;;;;4995228;28;20935;-61
2021/08/20 06:12:24;;;;;;;2.50;2.30;;;21.10;99.90;;;;;;4994867;28;20262;-61
2021/08/20 06:14:50;;;;;;;2.90;2.57;;;21.20;99.90;;;;;;4996259;28;20172;-62
2021/08/20 06:17:16;;;;;;;2.57;2.37;;;21.20;99.90;;;;;;4995896;28;20173;-62
2021/08/20 06:19:41;;;;;;;2.90;2.60;;;21.30;99.90;;;;;;4995359;28;20184;-62
2021/08/20 06:22:07;;;;;;;3.43;2.80;;;21.40;99.90;;;;;;4993851;28;20564;-61
2021/08/20 06:24:32;;;;;;;2.30;2.10;;;21.40;99.90;;;;;;4995196;28;20619;-62
2021/08/20 06:26:58;;;;;;;2.73;2.43;;;21.40;99.90;;;;;;4995349;28;20173;-62
2021/08/20 06:29:23;;;;;;;4.70;2.60;;;21.50;99.90;;;;;;4995424;28;20177;-63
2021/08/20 06:31:49;;;;;;;4.50;2.90;;;21.60;99.90;;;;;;4995095;28;20192;-62
2021/08/20 06:34:16;;;;;;;5.10;2.83;;;21.70;99.90;;;;;;4995392;28;20189;-63
2021/08/20 06:36:43;;;;;;;5.10;3.20;;;21.70;99.90;;;;;;4994774;28;20403;-63
2021/08/20 06:39:09;;;;;;;4.30;3.47;;;21.50;99.90;;;;;;4994638;28;20402;-63
2021/08/20 06:41:35;;;;;;;3.73;3.30;;;21.50;99.90;;;;;;4994810;28;20434;-62
2021/08/20 06:44:01;;;;;;;4.00;3.57;;;21.50;99.90;;;;;;4995073;28;20454;-62
2021/08/20 06:46:27;;;;;;;5.40;4.13;;;21.50;99.90;;;;;;4994595;28;20447;-62
2021/08/20 06:48:52;;;;;;;5.60;3.40;;;20.90;99.90;;;;;;4994940;28;20462;-62
2021/08/20 06:51:18;;;;;;;5.67;3.33;;;20.90;99.90;;;;;;4994677;28;20230;-62
2021/08/20 06:53:43;;;;;;;6.20;4.00;;;21.10;99.90;;;;;;4994489;28;20228;-61
2021/08/20 06:56:09;;;;;;;6.00;4.47;;;21.20;99.90;;;;;;4994341;28;20177;-62
2021/08/20 06:58:35;;;;;;;4.97;3.83;;;21.40;99.90;;;;;;4989044;28;20662;-64
2021/08/20 07:01:00;;;;;;;4.40;3.80;;;21.40;99.90;;;;;;4993103;28;20183;-62
2021/08/20 07:03:26;;;;;;;4.80;4.40;;;21.50;99.90;;;;;;4994233;28;20568;-62
2021/08/20 07:05:51;;;;;;;7.43;4.30;;;21.50;99.90;;;;;;4994116;28;20185;-60
2021/08/20 07:08:17;;;;;;;5.30;4.90;;;21.50;99.90;;;;;;4994047;28;20169;-62
2021/08/20 07:10:43;;;;;;;6.90;5.30;;;21.60;99.90;;;;;;4994205;28;20180;-61
2021/08/20 07:13:08;;;;;;;6.57;5.40;;;21.70;99.90;;;;;;4994118;28;20287;-63
2021/08/20 07:15:34;;;;;;;8.60;6.03;;;21.70;99.90;;;;;;4994532;28;20221;-63
2021/08/20 07:18:00;;;;;;;6.90;6.13;;;21.70;99.90;;;;;;4994445;28;20219;-61
2021/08/20 07:20:26;;;;;;;6.53;5.90;;;21.60;99.90;;;;;;4994008;28;20408;-62
2021/08/20 07:22:51;;;;;;;6.43;5.10;;;21.60;99.90;;;;;;4993750;28;20264;-62
2021/08/20 07:25:17;;;;;;;6.60;5.73;;;21.50;99.90;;;;;;4994249;28;20177;-59
2021/08/20 07:27:43;;;;;;;5.53;5.03;;;21.60;99.90;;;;;;4994264;28;20179;-62
2021/08/20 07:30:09;;;;;;;6.87;5.27;;;21.60;99.90;;;;;;4994278;28;20183;-63
2021/08/20 07:32:34;;;;;;;7.43;5.90;;;21.70;99.90;;;;;;4993735;28;20208;-63
2021/08/20 07:35:00;;;;;;;5.67;5.17;;;21.80;99.90;;;;;;4994356;28;20408;-63
2021/08/20 07:37:26;;;;;;;6.00;5.40;;;21.80;99.90;;;;;;4993991;28;20168;-64
2021/08/20 07:39:51;;;;;;;5.77;5.27;;;22.00;99.90;;;;;;5004626;28;20277;-63
2021/08/20 07:42:20;;;;;;;6.80;5.60;;;22.30;99.90;;;;;;5013632;28;20191;-59
2021/08/20 07:44:46;;;;;;;5.97;5.13;;;22.30;99.90;;;;;;5013821;28;20175;-62
2021/08/20 07:47:12;;;;;;;6.17;5.60;;;22.50;99.90;;;;;;4996432;28;20422;-62
2021/08/20 07:49:38;;;;;;;8.77;6.53;;;22.30;99.90;;;;;;5013606;28;20451;-62
2021/08/20 07:52:04;;;;;;;6.07;5.50;;;22.30;99.90;;;;;;4993784;28;21007;-66
2021/08/20 07:54:30;;;;;;;6.33;5.80;;;22.30;99.90;;;;;;4994627;28;20177;-62
2021/08/20 07:56:55;;;;;;;6.67;5.90;;;22.20;99.90;;;;;;4995009;28;20443;-61
2021/08/20 07:59:21;;;;;;;7.17;5.50;;;22.00;99.90;;;;;;4993231;28;20656;-62
2021/08/20 08:01:46;;;;;;;7.47;5.67;;;22.10;99.90;;;;;;4993619;28;20191;-63
2021/08/20 08:04:12;;;;;;;9.60;6.37;;;21.90;99.90;;;;;;4993564;28;20255;-63
2021/08/20 08:06:39;;;;;;;6.53;5.87;;;22.00;99.90;;;;;;4993414;28;20175;-63
2021/08/20 08:09:05;;;;;;;7.33;6.17;;;22.00;99.90;;;;;;4989548;28;20427;-65
2021/08/20 08:11:31;;;;;;;6.47;5.77;;;22.30;99.90;;;;;;4991921;28;20442;-63
2021/08/20 08:14:03;;;;;;;6.80;6.17;;;22.40;99.90;;;;;;4993651;28;20462;-62
2021/08/20 08:16:30;;;;;;;6.40;5.80;;;22.40;99.90;;;;;;4993786;28;20475;-62
2021/08/20 08:18:56;;;;;;;5.10;4.70;;;22.80;99.90;;;;;;4993719;28;20416;-60
2021/08/20 08:21:22;;;;;;;4.97;4.53;;;23.10;99.90;;;;;;4993141;28;20415;-61
2021/08/20 08:23:47;;;;;;;5.93;5.40;;;23.50;99.90;;;;;;4993207;28;20431;-61
2021/08/20 08:26:13;;;;;;;6.43;5.83;;;23.80;99.90;;;;;;4993392;28;20180;-61
2021/08/20 08:28:38;;;;;;;8.33;5.80;;;23.60;99.90;;;;;;4993656;28;20568;-61
2021/08/20 08:31:04;;;;;;;6.20;5.10;;;23.40;99.90;;;;;;4993377;28;20180;-62
2021/08/20 08:33:30;;;;;;;6.30;4.40;;;23.50;99.90;;;;;;4993478;28;20196;-61
2021/08/20 08:35:55;;;;;;;5.13;4.37;;;23.40;99.90;;;;;;4993284;28;20251;-61
2021/08/20 08:38:21;;;;;;;5.33;4.80;;;23.30;99.90;;;;;;4993082;28;20172;-61
2021/08/20 08:40:48;;;;;;;5.17;4.60;;;23.10;99.90;;;;;;4993420;28;20590;-61
2021/08/20 08:43:15;;;;;;;7.13;4.73;;;23.10;99.90;;;;;;4993498;28;20255;-61
2021/08/20 08:45:41;;;;;;;5.47;4.80;;;22.60;99.90;;;;;;4996530;28;20826;-61
2021/08/20 08:48:09;;;;;;;7.23;5.83;;;22.50;99.90;;;;;;4998071;28;20769;-64
2021/08/20 08:50:35;;;;;;;8.00;5.50;;;22.80;99.90;;;;;;4997086;28;20466;-63
2021/08/20 08:53:02;;;;;;;7.80;5.10;;;22.90;99.90;;;;;;4996426;28;20471;-63
2021/08/20 08:55:28;;;;;;;6.27;4.57;;;23.20;99.90;;;;;;4997005;28;20416;-62
2021/08/20 08:57:54;;;;;;;3.80;3.47;;;23.40;99.90;;;;;;4996972;28;20490;-62
2021/08/20 09:00:30;;;;;;;5.03;4.40;;;23.60;99.90;;;;;;4996937;28;20652;-62
2021/08/20 09:02:56;;;;;;;4.50;4.10;;;23.90;99.90;;;;;;4996865;28;20211;-62
2021/08/20 09:05:22;;;;;;;5.50;4.80;;;24.10;99.90;;;;;;4996764;28;20462;-63
2021/08/20 09:07:52;;;;;;;5.37;4.90;;;24.00;99.90;;;;;;5034201;22;20527;-58
2021/08/20 09:10:23;;;;;;;7.07;5.27;;;24.10;99.90;;;;;;5024871;28;20195;-60
2021/08/20 09:12:59;;;;;;;6.97;6.30;;;23.70;99.90;;;;;;5025270;28;20454;-59
2021/08/20 09:15:30;;;;;;;6.83;6.23;;;23.20;99.90;;;;;;5017059;28;20403;-59
2021/08/20 09:17:59;;;;;;;7.30;6.70;;;22.80;99.90;;;;;;5006432;28;20420;-59
2021/08/20 09:20:26;;;;;;;7.63;6.90;;;22.50;99.90;;;;;;4996523;28;20495;-60
2021/08/20 09:22:54;;;;;;;8.20;7.50;;;22.50;99.90;;;;;;4996454;28;20404;-60
2021/08/20 09:25:40;;;;;;;6.73;6.13;;;22.50;99.90;;;;;;4997297;28;20411;-59
2021/08/20 09:28:10;;;;;;;7.70;7.00;;;22.70;99.90;;;;;;4996609;28;20518;-59
2021/08/20 09:30:36;;;;;;;7.90;7.20;;;22.60;99.90;;;;;;4996259;28;20412;-60
2021/08/20 09:33:02;;;;;;;9.80;7.10;;;22.50;99.90;;;;;;4996668;28;20880;-59
2021/08/20 09:35:38;;;;;;;6.23;5.40;;;22.60;99.90;;;;;;4996601;28;20470;-58
2021/08/20 09:38:23;;;;;;;7.33;6.60;;;22.80;99.90;;;;;;5005911;28;20426;-60
2021/08/20 09:40:52;;;;;;;6.80;6.13;;;22.80;99.90;;;;;;5011686;28;20463;-59
2021/08/20 09:43:26;;;;;;;5.90;5.27;;;22.90;99.90;;;;;;4989110;28;20423;-58
2021/08/20 09:46:13;;;;;;;5.33;4.93;;;23.10;99.90;;;;;;5015628;28;20802;-60
2021/08/20 09:48:48;;;;;;;5.73;5.23;;;23.20;99.90;;;;;;5015825;28;20865;-59
2021/08/20 09:51:35;;;;;;;6.10;5.60;;;23.40;99.90;;;;;;5015406;28;20379;-58
2021/08/20 09:54:02;;;;;;;6.33;5.10;;;23.60;99.90;;;;;;5015218;28;20445;-59
2021/08/20 09:56:28;;;;;;;5.50;5.00;;;24.00;99.90;;;;;;5015679;28;20403;-59
2021/08/20 09:58:57;;;;;;;5.83;5.33;;;24.50;99.90;;;;;;5010520;28;20901;-59
2021/08/20 10:01:24;;;;;;;5.53;5.03;;;24.50;99.90;;;;;;5015151;28;20395;-59
2021/08/20 10:03:53;;;;;;;5.60;5.10;;;24.30;99.90;;;;;;5015427;28;20422;-58
2021/08/20 10:06:21;;;;;;;5.73;5.23;;;24.80;99.90;;;;;;5015137;28;20971;-59
2021/08/20 10:08:47;;;;;;;5.60;5.10;;;25.10;99.90;;;;;;5014840;28;20457;-59
2021/08/20 10:11:16;;;;;;;5.13;4.73;;;25.40;99.90;;;;;;5010977;28;20431;-56
2021/08/20 10:13:45;;;;;;;5.30;4.80;;;25.20;99.90;;;;;;5006360;28;20184;-58
2021/08/20 10:16:12;;;;;;;4.97;4.57;;;25.20;99.90;;;;;;5014885;28;20410;-58
2021/08/20 10:18:38;;;;;;;6.63;5.30;;;25.30;99.90;;;;;;5014934;28;20446;-58
2021/08/20 10:21:04;;;;;;;5.40;5.00;;;25.40;99.90;;;;;;5014967;28;20636;-58
2021/08/20 10:23:32;;;;;;;5.87;5.37;;;25.10;99.90;;;;;;5014766;28;20242;-55
2021/08/20 10:25:58;;;;;;;5.13;4.70;;;24.40;99.90;;;;;;5015006;28;20403;-57
2021/08/20 10:28:25;;;;;;;4.33;4.03;;;24.50;99.90;;;;;;5014785;28;20427;-58
2021/08/20 10:30:51;;;;;;;6.23;5.70;;;24.70;99.90;;;;;;5015129;28;20399;-58
2021/08/20 10:33:32;;;;;;;8.73;5.30;;;24.40;99.90;;;;;;5014567;28;20455;-58
2021/08/20 10:35:58;;;;;;;5.60;5.10;;;24.00;99.90;;;;;;5014610;28;20399;-58
2021/08/20 10:38:28;;;;;;;5.63;5.20;;;24.10;99.90;;;;;;5014266;28;20451;-59
2021/08/20 10:41:07;;;;;;;5.30;4.80;;;24.30;99.90;;;;;;5014754;28;20403;-59
2021/08/20 10:43:53;;;;;;;4.70;4.30;;;24.50;99.90;;;;;;5014819;28;20771;-58
2021/08/20 10:46:34;;;;;;;5.73;4.43;;;24.60;99.90;;;;;;5014627;28;20403;-58
2021/08/20 10:49:15;;;;;;;4.13;3.77;;;24.60;99.90;;;;;;5014727;28;20422;-57
2021/08/20 10:51:53;;;;;;;3.97;3.67;;;24.80;99.90;;;;;;5014486;28;20395;-56
2021/08/20 10:54:31;;;;;;;4.97;4.50;;;24.80;99.90;;;;;;5014283;28;20434;-58
2021/08/20 10:57:01;;;;;;;4.80;4.40;;;25.30;99.90;;;;;;5014303;28;20449;-56
2021/08/20 10:59:36;;;;;;;5.97;3.83;;;25.80;99.90;;;;;;5012071;28;20403;-57
2021/08/20 11:02:19;;;;;;;3.70;3.40;;;27.30;99.60;;;;;;4994793;28;20410;-58
2021/08/20 11:05:04;;;;;;;4.40;4.00;;;28.50;96.60;;;;;;4994666;28;20400;-58
2021/08/20 11:07:36;;;;;;;4.80;3.70;;;29.80;95.20;;;;;;4998942;28;20830;-58
2021/08/20 11:10:10;;;;;;;3.47;3.17;;;30.80;93.90;;;;;;5014418;28;20403;-58
2021/08/20 11:12:37;;;;;;;3.83;3.53;;;32.20;90.90;;;;;;5014567;28;21035;-58
2021/08/20 11:15:20;;;;;;;4.03;3.63;;;33.20;85.80;;;;;;5014494;28;20408;-57
2021/08/20 11:17:56;;;;;;;3.77;3.47;;;32.90;83.90;;;;;;5014170;28;20427;-58
2021/08/20 11:20:26;;;;;;;4.80;2.93;;;33.00;82.50;;;;;;5014004;28;20414;-58
2021/08/20 11:23:10;;;;;;;4.53;4.10;;;32.70;80.80;;;;;;5013595;28;20407;-58
2021/08/20 11:25:46;;;;;;;4.07;3.77;;;31.80;84.40;;;;;;5014388;28;20418;-57
2021/08/20 11:28:20;;;;;;;5.40;4.90;;;30.40;87.80;;;;;;5004962;28;20525;-59
2021/08/20 11:31:09;;;;;;;4.00;3.67;;;29.50;88.70;;;;;;5003579;28;20406;-59
2021/08/20 11:33:36;;;;;;;4.27;3.87;;;28.30;90.60;;;;;;4994799;28;20447;-59
2021/08/20 11:36:01;;;;;;;5.00;4.00;;;27.30;92.20;;;;;;4993964;28;20407;-61
2021/08/20 11:38:34;;;;;;;3.80;3.50;;;26.50;92.80;;;;;;5006963;28;20415;-60
2021/08/20 11:41:06;;;;;;;3.67;3.33;;;26.80;93.90;;;;;;5013974;28;20551;-60
2021/08/20 11:43:32;;;;;;;3.83;3.43;;;29.00;91.60;;;;;;5014016;28;20384;-56
2021/08/20 11:46:06;;;;;;;3.80;3.50;;;31.40;85.70;;;;;;5013581;28;20407;-59
2021/08/20 11:48:49;;;;;;;4.00;3.70;;;32.40;81.10;;;;;;5013900;28;20423;-58
2021/08/20 11:51:35;;;;;;;4.17;3.83;;;33.30;77.80;;;;;;5013719;28;20383;-58
2021/08/20 11:54:05;;;;;;;4.23;3.53;;;33.20;76.60;;;;;;5012970;28;20839;-59
2021/08/20 11:56:32;;;;;;;3.93;3.40;;;35.10;73.30;;;;;;5013819;28;20486;-60
2021/08/20 11:59:05;;;;;;;4.57;3.60;;;34.80;70.90;;;;;;5013312;28;20481;-59
2021/08/20 12:01:34;;;;;;;4.57;3.10;;;34.80;70.40;;;;;;5013578;28;20474;-60
2021/08/20 12:04:00;;;;;;;5.00;3.73;;;34.30;69.70;;;;;;5013571;28;20414;-60
2021/08/20 12:06:27;;;;;;;4.03;3.60;;;34.30;70.50;;;;;;5013203;28;21022;-60
2021/08/20 12:08:57;;;;;;;4.30;3.90;;;32.90;71.80;;;;;;5012882;28;20208;-60
2021/08/20 12:11:29;;;;;;;3.43;3.13;;;31.60;76.80;;;;;;5013329;28;20408;-59
2021/08/20 12:13:56;;;;;;;4.07;3.53;;;30.30;79.60;;;;;;5013593;28;20514;-59
2021/08/20 12:16:43;;;;;;;6.53;3.80;;;29.50;81.50;;;;;;5013929;28;20926;-60
2021/08/20 12:19:15;;;;;;;3.73;3.43;;;30.00;80.20;;;;;;5014115;28;20387;-60
2021/08/20 12:21:44;;;;;;;7.83;3.90;;;30.00;80.70;;;;;;5017258;28;20729;-58
2021/08/20 12:24:10;;;;;;;4.10;3.70;;;30.40;79.50;;;;;;5016930;28;20990;-58
2021/08/20 12:26:36;;;;;;;3.67;3.37;;;31.40;77.80;;;;;;5017122;28;20803;-59
2021/08/20 12:29:13;;;;;;;3.47;3.17;;;33.10;74.90;;;;;;5017272;28;20760;-60
2021/08/20 12:31:39;;;;;;;3.80;3.50;;;35.00;68.60;;;;;;5017062;28;20156;-59
2021/08/20 12:34:06;;;;;;;3.10;2.90;;;33.10;71.00;;;;;;5016661;28;20457;-58
2021/08/20 12:36:32;;;;;;;3.80;3.50;;;31.70;73.60;;;;;;5016640;28;20182;-59
2021/08/20 12:39:07;;;;;;;3.90;3.43;;;30.50;75.80;;;;;;5016625;28;20514;-62
2021/08/20 12:41:33;;;;;;;7.97;3.30;;;29.60;78.40;;;;;;5016832;28;20417;-59
2021/08/20 12:43:58;;;;;;;3.60;3.30;;;29.40;80.80;;;;;;5016857;28;20411;-59
2021/08/20 12:46:34;;;;;;;3.97;3.03;;;28.80;81.50;;;;;;5016624;28;20247;-60
2021/08/20 12:49:02;;;;;;;3.10;2.90;;;28.60;84.20;;;;;;5017628;28;20691;-62
2021/08/20 12:51:28;;;;;;;5.17;3.43;;;29.20;84.50;;;;;;5016544;28;20419;-60